createdAt,value
2022-11-05T16:54:20.204Z,5.20
2022-11-05T16:57:28.542Z,2.83
2022-11-05T17:00:33.743Z,4.03
2022-11-05T17:03:38.744Z,4.53
2022-11-05T17:06:46.591Z,4.07
2022-11-05T17:09:51.653Z,2.72
2022-11-05T17:12:56.953Z,4.80
2022-11-05T17:16:01.946Z,2.92
2022-11-05T17:19:15.255Z,4.82
2022-11-05T17:22:20.628Z,5.28
2022-11-05T17:25:26.965Z,5.13
2022-11-05T17:28:33.036Z,3.85
2022-11-05T17:31:40.642Z,3.60
2022-11-05T17:34:46.480Z,3.75
2022-11-05T17:37:51.246Z,3.63
2022-11-05T17:40:56.477Z,3.40
2022-11-05T17:44:01.580Z,3.63
2022-11-05T17:47:06.827Z,4.20
2022-11-05T17:50:16.016Z,2.92
2022-11-05T17:53:21.029Z,3.45
2022-11-05T17:56:33.783Z,3.20
2022-11-05T17:59:39.883Z,4.88
2022-11-05T18:02:46.470Z,4.05
2022-11-05T18:05:51.761Z,4.70
2022-11-05T18:08:57.052Z,4.55
2022-11-05T18:12:02.233Z,3.88
2022-11-05T18:15:08.742Z,3.70
2022-11-05T18:18:13.738Z,4.15
2022-11-05T18:21:18.752Z,3.63
2022-11-05T18:24:24.124Z,3.58
2022-11-05T18:27:29.036Z,4.97
2022-11-05T18:30:34.559Z,4.20
2022-11-05T18:33:39.878Z,5.45
2022-11-05T18:36:45.559Z,3.22
2022-11-05T18:39:51.801Z,4.50
2022-11-05T18:42:56.838Z,5.25
2022-11-05T18:46:01.980Z,4.47
2022-11-05T18:49:07.268Z,5.40
2022-11-05T18:52:12.333Z,4.93
2022-11-05T18:55:17.485Z,6.90
2022-11-05T18:58:22.197Z,6.38
2022-11-05T19:01:28.363Z,3.78
2022-11-05T19:04:36.663Z,4.90
2022-11-05T19:07:41.524Z,6.07
2022-11-05T19:10:51.340Z,5.35
2022-11-05T19:13:56.266Z,7.10
2022-11-05T19:17:01.968Z,5.70
2022-11-05T19:20:09.304Z,4.75
2022-11-05T19:23:14.142Z,5.20
2022-11-05T19:26:28.333Z,4.43
2022-11-05T19:29:33.807Z,5.15
2022-11-05T19:32:38.585Z,5.18
2022-11-05T19:35:43.386Z,4.78
2022-11-05T19:38:53.980Z,6.35
2022-11-05T19:42:03.105Z,6.03
2022-11-05T19:45:42.946Z,6.85
2022-11-05T19:48:34.973Z,5.57
2022-11-05T19:51:40.058Z,4.88
2022-11-05T19:54:46.094Z,8.05
2022-11-05T19:57:51.152Z,5.38
2022-11-05T20:00:56.113Z,6.40
2022-11-05T20:04:02.588Z,6.47
2022-11-05T20:07:07.341Z,6.63
2022-11-05T20:10:12.297Z,7.40
2022-11-05T20:13:20.008Z,7.63
2022-11-05T20:16:39.060Z,8.13
2022-11-05T20:19:44.185Z,7.20
2022-11-05T20:22:52.347Z,8.65
2022-11-05T20:25:58.692Z,8.02
2022-11-05T20:29:03.917Z,8.32
2022-11-05T20:32:09.409Z,7.93
2022-11-05T20:35:14.259Z,7.68
2022-11-05T20:38:19.414Z,8.50
2022-11-05T20:41:26.538Z,7.35
2022-11-05T20:44:31.073Z,6.70
2022-11-05T20:47:37.507Z,7.50
2022-11-05T20:50:44.981Z,8.57
2022-11-05T20:53:55.488Z,6.70
2022-11-05T20:57:00.513Z,8.38
2022-11-05T21:00:07.382Z,7.90
2022-11-05T21:03:12.309Z,7.03
2022-11-05T21:06:18.072Z,8.15
2022-11-05T21:09:23.031Z,6.18
2022-11-05T21:12:28.073Z,7.07
2022-11-05T21:15:33.067Z,7.40
2022-11-05T21:18:40.001Z,5.72
2022-11-05T21:21:44.821Z,7.35
2022-11-05T21:24:49.846Z,6.95
2022-11-05T21:27:55.056Z,9.07
2022-11-05T21:31:02.438Z,7.28
2022-11-05T21:34:07.454Z,7.53
2022-11-05T21:37:12.395Z,6.72
2022-11-05T21:40:17.501Z,8.25
2022-11-05T21:43:22.241Z,8.27
2022-11-05T21:46:27.491Z,7.50
2022-11-05T21:49:34.482Z,7.10
2022-11-05T21:52:58.024Z,7.88
2022-11-05T21:56:33.667Z,7.03
2022-11-05T21:59:55.299Z,6.53
2022-11-05T22:03:00.479Z,6.97
2022-11-05T22:06:06.037Z,7.55
2022-11-05T22:09:10.691Z,7.70
2022-11-05T22:12:16.254Z,5.97
2022-11-05T22:15:21.633Z,5.95
2022-11-05T22:18:26.759Z,7.65
2022-11-05T22:21:31.939Z,6.20
2022-11-05T22:24:38.276Z,8.40
2022-11-05T22:27:44.086Z,5.80
2022-11-05T22:30:49.461Z,9.43
2022-11-05T22:33:54.502Z,6.50
2022-11-05T22:36:59.660Z,6.18
2022-11-05T22:40:04.842Z,6.07
2022-11-05T22:43:10.039Z,6.95
2022-11-05T22:46:23.667Z,5.72
2022-11-05T22:49:28.531Z,6.97
2022-11-05T22:52:33.809Z,8.32
2022-11-05T22:55:41.626Z,7.32
2022-11-05T22:58:47.520Z,7.07
2022-11-05T23:01:52.667Z,7.90
2022-11-05T23:04:57.577Z,7.38
2022-11-05T23:08:21.079Z,8.15
2022-11-05T23:11:38.756Z,6.68
2022-11-05T23:14:43.966Z,7.68
2022-11-05T23:18:07.497Z,8.93
2022-11-05T23:21:31.033Z,7.43
2022-11-05T23:24:36.096Z,6.15
2022-11-05T23:27:41.612Z,8.48
2022-11-05T23:31:04.978Z,7.82
2022-11-05T23:34:10.036Z,7.25
2022-11-05T23:37:33.471Z,8.80
2022-11-05T23:40:58.395Z,8.45
2022-11-05T23:44:22.109Z,7.05
2022-11-05T23:47:45.895Z,6.88
2022-11-05T23:51:10.293Z,9.23
2022-11-05T23:54:15.365Z,8.43
2022-11-05T23:57:20.689Z,8.23
